Back to Top

Language: 

My Weather Underground Personal Weather Station Historical Data with Graphs...

Delerius Weather Station Historical Data
Daily Summary for December 9, 2017 Units:  Both    English   Metric
« Previous Day
Next Day »
Daily Weekly Monthly Yearly Custom
  High: Low: Average:
Temperature: 36.7 °F /  2.6 °C 29.7 °F /  -1.3 °C 33.6 °F /  0.9 °C
Dew Point: 32.3 °F /  0.2 °C 25.2 °F /  -3.8 °C 29.6 °F /  -1.3 °C
Humidity: 94 % 75 % 85 %
Wind Speed: 14.0 mph /  22.5 km/h - 5.9 mph /  9.5 km/h
Wind Gust: 21.0 mph /  33.8 km/h - -
Wind:- - WNW
Pressure: 30.02 in /  1016.5 hPa 29.54 in /  1000.2 hPa -
Precipitation: 0.00 in /  0 mm    
Historical Graphs
 
 
Tabular Data for December 9, 2017
Time Temperature Dew Point Pressure Wind Wind Speed Wind Gust Humidity Rainfall Rate (Hourly) solar Conditions
00:04 33.1 °F /  0.6 °C 26.3 °F /  -3.2 °C 30.01 in /  1016.1 hPa WNW 10.0 mph /  16.1 km/h 16.0 mph /  25.7 km/h 76 % 0.00 in /  0 mm 0 W/m2
00:09 33.1 °F /  0.6 °C 26.3 °F /  -3.2 °C 30.01 in /  1016.1 hPa WNW 11.0 mph /  17.7 km/h 18.0 mph /  29 km/h 76 % 0.00 in /  0 mm 0 W/m2
00:14 33.1 °F /  0.6 °C 26.3 °F /  -3.2 °C 30.01 in /  1016.1 hPa WNW 12.0 mph /  19.3 km/h 16.0 mph /  25.7 km/h 76 % 0.00 in /  0 mm 0 W/m2
00:19 33.1 °F /  0.6 °C 26.3 °F /  -3.2 °C 30.01 in /  1016.1 hPa WNW 11.0 mph /  17.7 km/h 21.0 mph /  33.8 km/h 76 % 0.00 in /  0 mm 0 W/m2
00:24 33.1 °F /  0.6 °C 26.3 °F /  -3.2 °C 30.01 in /  1016.1 hPa WNW 11.0 mph /  17.7 km/h 19.0 mph /  30.6 km/h 76 % 0.00 in /  0 mm 0 W/m2
00:29 33.1 °F /  0.6 °C 26.3 °F /  -3.2 °C 30.01 in /  1016.1 hPa WNW 10.0 mph /  16.1 km/h 16.0 mph /  25.7 km/h 76 % 0.00 in /  0 mm 0 W/m2
00:34 33.1 °F /  0.6 °C 26.3 °F /  -3.2 °C 30.01 in /  1016.1 hPa WNW 10.0 mph /  16.1 km/h 16.0 mph /  25.7 km/h 76 % 0.00 in /  0 mm 0 W/m2
00:39 33.1 °F /  0.6 °C 26.3 °F /  -3.2 °C 30.01 in /  1016.1 hPa WNW 10.0 mph /  16.1 km/h 20.0 mph /  32.2 km/h 76 % 0.00 in /  0 mm 0 W/m2
00:44 33.1 °F /  0.6 °C 26.3 °F /  -3.2 °C 30.02 in /  1016.5 hPa WNW 12.0 mph /  19.3 km/h 18.0 mph /  29 km/h 76 % 0.00 in /  0 mm 0 W/m2
00:49 33.3 °F /  0.7 °C 26.2 °F /  -3.2 °C 30.01 in /  1016.1 hPa WNW 11.0 mph /  17.7 km/h 21.0 mph /  33.8 km/h 75 % 0.00 in /  0 mm 0 W/m2
00:59 33.4 °F /  0.8 °C 26.7 °F /  -2.9 °C 30.01 in /  1016.1 hPa WNW 12.0 mph /  19.3 km/h 19.0 mph /  30.6 km/h 76 % 0.00 in /  0 mm 0 W/m2
01:05 33.4 °F /  0.8 °C 26.7 °F /  -2.9 °C 30.01 in /  1016.1 hPa WNW 14.0 mph /  22.5 km/h 20.0 mph /  32.2 km/h 76 % 0.00 in /  0 mm 0 W/m2
01:15 33.4 °F /  0.8 °C 26.7 °F /  -2.9 °C 30.01 in /  1016.1 hPa WNW 12.0 mph /  19.3 km/h 18.0 mph /  29 km/h 76 % 0.00 in /  0 mm 0 W/m2
01:20 33.4 °F /  0.8 °C 26.7 °F /  -2.9 °C 30.01 in /  1016.1 hPa WNW 13.0 mph /  20.9 km/h 19.0 mph /  30.6 km/h 76 % 0.00 in /  0 mm 0 W/m2
01:25 33.3 °F /  0.7 °C 26.5 °F /  -3.1 °C 30.01 in /  1016.1 hPa WNW 12.0 mph /  19.3 km/h 16.0 mph /  25.7 km/h 76 % 0.00 in /  0 mm 0 W/m2
01:30 33.3 °F /  0.7 °C 26.8 °F /  -2.9 °C 30.01 in /  1016.1 hPa WNW 14.0 mph /  22.5 km/h 21.0 mph /  33.8 km/h 77 % 0.00 in /  0 mm 0 W/m2
01:35 33.3 °F /  0.7 °C 26.8 °F /  -2.9 °C 30.01 in /  1016.1 hPa WNW 13.0 mph /  20.9 km/h 21.0 mph /  33.8 km/h 77 % 0.00 in /  0 mm 0 W/m2
01:50 33.3 °F /  0.7 °C 26.8 °F /  -2.9 °C 30.01 in /  1016.1 hPa WNW 11.0 mph /  17.7 km/h 18.0 mph /  29 km/h 77 % 0.00 in /  0 mm 0 W/m2
02:00 33.3 °F /  0.7 °C 26.8 °F /  -2.9 °C 30.01 in /  1016.1 hPa WNW 11.0 mph /  17.7 km/h 19.0 mph /  30.6 km/h 77 % 0.00 in /  0 mm 0 W/m2
02:10 33.3 °F /  0.7 °C 27.1 °F /  -2.7 °C 30.02 in /  1016.5 hPa WNW 11.0 mph /  17.7 km/h 14.0 mph /  22.5 km/h 78 % 0.00 in /  0 mm 0 W/m2
02:15 33.3 °F /  0.7 °C 26.8 °F /  -2.9 °C 30.02 in /  1016.5 hPa WNW 9.0 mph /  14.5 km/h 13.0 mph /  20.9 km/h 77 % 0.00 in /  0 mm 0 W/m2
02:20 33.3 °F /  0.7 °C 26.8 °F /  -2.9 °C 30.02 in /  1016.5 hPa WNW 10.0 mph /  16.1 km/h 18.0 mph /  29 km/h 77 % 0.00 in /  0 mm 0 W/m2
02:25 33.4 °F /  0.8 °C 27.0 °F /  -2.8 °C 30.02 in /  1016.5 hPa WNW 11.0 mph /  17.7 km/h 20.0 mph /  32.2 km/h 77 % 0.00 in /  0 mm 0 W/m2
02:30 33.4 °F /  0.8 °C 27.3 °F /  -2.6 °C 30.02 in /  1016.5 hPa WNW 11.0 mph /  17.7 km/h 18.0 mph /  29 km/h 78 % 0.00 in /  0 mm 0 W/m2
02:35 33.4 °F /  0.8 °C 27.3 °F /  -2.6 °C 30.01 in /  1016.1 hPa WNW 9.0 mph /  14.5 km/h 13.0 mph /  20.9 km/h 78 % 0.00 in /  0 mm 0 W/m2
02:40 33.3 °F /  0.7 °C 27.1 °F /  -2.7 °C 30.01 in /  1016.1 hPa WNW 10.0 mph /  16.1 km/h 16.0 mph /  25.7 km/h 78 % 0.00 in /  0 mm 0 W/m2
02:50 33.1 °F /  0.6 °C 27.0 °F /  -2.8 °C 30.01 in /  1016.1 hPa WNW 8.0 mph /  12.9 km/h 13.0 mph /  20.9 km/h 78 % 0.00 in /  0 mm 0 W/m2
02:55 33.1 °F /  0.6 °C 27.0 °F /  -2.8 °C 30.01 in /  1016.1 hPa WNW 9.0 mph /  14.5 km/h 14.0 mph /  22.5 km/h 78 % 0.00 in /  0 mm 0 W/m2
03:00 33.1 °F /  0.6 °C 27.0 °F /  -2.8 °C 30.01 in /  1016.1 hPa WNW 10.0 mph /  16.1 km/h 15.0 mph /  24.1 km/h 78 % 0.00 in /  0 mm 0 W/m2
03:05 33.1 °F /  0.6 °C 27.0 °F /  -2.8 °C 30.01 in /  1016.1 hPa WNW 9.0 mph /  14.5 km/h 12.0 mph /  19.3 km/h 78 % 0.00 in /  0 mm 0 W/m2
03:10 33.1 °F /  0.6 °C 27.3 °F /  -2.6 °C 30.01 in /  1016.1 hPa WNW 7.0 mph /  11.3 km/h 10.0 mph /  16.1 km/h 79 % 0.00 in /  0 mm 0 W/m2
03:16 32.9 °F /  0.5 °C 27.1 °F /  -2.7 °C 30.01 in /  1016.1 hPa WNW 6.0 mph /  9.7 km/h 11.0 mph /  17.7 km/h 79 % 0.00 in /  0 mm 0 W/m2
03:20 32.7 °F /  0.4 °C 26.9 °F /  -2.8 °C 30.01 in /  1016.1 hPa NW 6.0 mph /  9.7 km/h 9.0 mph /  14.5 km/h 79 % 0.00 in /  0 mm 0 W/m2
03:21 32.7 °F /  0.4 °C 26.9 °F /  -2.8 °C 30.01 in /  1016.1 hPa NW 7.0 mph /  11.3 km/h 9.0 mph /  14.5 km/h 79 % 0.00 in /  0 mm 0 W/m2
03:26 32.5 °F /  0.3 °C 27.1 °F /  -2.7 °C 30.01 in /  1016.1 hPa NW 6.0 mph /  9.7 km/h 12.0 mph /  19.3 km/h 80 % 0.00 in /  0 mm 0 W/m2
03:29 32.5 °F /  0.3 °C 27.1 °F /  -2.7 °C 30.01 in /  1016.1 hPa WNW 5.0 mph /  8 km/h 8.0 mph /  12.9 km/h 80 % 0.00 in /  0 mm 0 W/m2
03:34 32.4 °F /  0.2 °C 26.9 °F /  -2.8 °C 30.01 in /  1016.1 hPa WNW 8.0 mph /  12.9 km/h 12.0 mph /  19.3 km/h 80 % 0.00 in /  0 mm 0 W/m2
03:39 32.4 °F /  0.2 °C 26.9 °F /  -2.8 °C 30.01 in /  1016.1 hPa WNW 10.0 mph /  16.1 km/h 15.0 mph /  24.1 km/h 80 % 0.00 in /  0 mm 0 W/m2
03:44 32.5 °F /  0.3 °C 27.1 °F /  -2.7 °C 30.01 in /  1016.1 hPa WNW 10.0 mph /  16.1 km/h 14.0 mph /  22.5 km/h 80 % 0.00 in /  0 mm 0 W/m2
03:49 32.5 °F /  0.3 °C 27.1 °F /  -2.7 °C 30.00 in /  1015.8 hPa WNW 9.0 mph /  14.5 km/h 15.0 mph /  24.1 km/h 80 % 0.00 in /  0 mm 0 W/m2
03:54 32.5 °F /  0.3 °C 27.1 °F /  -2.7 °C 30.00 in /  1015.8 hPa WNW 10.0 mph /  16.1 km/h 14.0 mph /  22.5 km/h 80 % 0.00 in /  0 mm 0 W/m2
04:04 32.5 °F /  0.3 °C 27.1 °F /  -2.7 °C 30.00 in /  1015.8 hPa WNW 8.0 mph /  12.9 km/h 11.0 mph /  17.7 km/h 80 % 0.00 in /  0 mm 0 W/m2
04:09 32.5 °F /  0.3 °C 27.1 °F /  -2.7 °C 30.00 in /  1015.8 hPa WNW 7.0 mph /  11.3 km/h 11.0 mph /  17.7 km/h 80 % 0.00 in /  0 mm 0 W/m2
04:14 32.5 °F /  0.3 °C 27.1 °F /  -2.7 °C 30.00 in /  1015.8 hPa WNW 8.0 mph /  12.9 km/h 12.0 mph /  19.3 km/h 80 % 0.00 in /  0 mm 0 W/m2
04:19 32.5 °F /  0.3 °C 27.1 °F /  -2.7 °C 30.00 in /  1015.8 hPa WNW 7.0 mph /  11.3 km/h 9.0 mph /  14.5 km/h 80 % 0.00 in /  0 mm 0 W/m2
04:24 32.4 °F /  0.2 °C 26.9 °F /  -2.8 °C 30.00 in /  1015.8 hPa West 5.0 mph /  8 km/h 7.0 mph /  11.3 km/h 80 % 0.00 in /  0 mm 0 W/m2
04:29 32.2 °F /  0.1 °C 26.7 °F /  -2.9 °C 29.99 in /  1015.5 hPa West 5.0 mph /  8 km/h 8.0 mph /  12.9 km/h 80 % 0.00 in /  0 mm 0 W/m2
04:39 32.0 °F /  0 °C 26.8 °F /  -2.9 °C 29.99 in /  1015.5 hPa WNW 8.0 mph /  12.9 km/h 12.0 mph /  19.3 km/h 81 % 0.00 in /  0 mm 0 W/m2
04:44 32.0 °F /  0 °C 26.8 °F /  -2.9 °C 29.99 in /  1015.5 hPa WNW 11.0 mph /  17.7 km/h 18.0 mph /  29 km/h 81 % 0.00 in /  0 mm 0 W/m2
04:54 32.5 °F /  0.3 °C 27.1 °F /  -2.7 °C 29.99 in /  1015.5 hPa WNW 12.0 mph /  19.3 km/h 18.0 mph /  29 km/h 80 % 0.00 in /  0 mm 0 W/m2
04:57 32.5 °F /  0.3 °C 27.1 °F /  -2.7 °C 29.99 in /  1015.5 hPa WNW 11.0 mph /  17.7 km/h 18.0 mph /  29 km/h 80 % 0.00 in /  0 mm 0 W/m2
05:02 32.7 °F /  0.4 °C 27.2 °F /  -2.7 °C 29.99 in /  1015.5 hPa WNW 13.0 mph /  20.9 km/h 19.0 mph /  30.6 km/h 80 % 0.00 in /  0 mm 0 W/m2
05:12 32.9 °F /  0.5 °C 27.1 °F /  -2.7 °C 29.99 in /  1015.5 hPa WNW 10.0 mph /  16.1 km/h 13.0 mph /  20.9 km/h 79 % 0.00 in /  0 mm 0 W/m2
05:17 32.9 °F /  0.5 °C 26.8 °F /  -2.9 °C 29.99 in /  1015.5 hPa WNW 11.0 mph /  17.7 km/h 16.0 mph /  25.7 km/h 78 % 0.00 in /  0 mm 0 W/m2
05:22 32.9 °F /  0.5 °C 26.8 °F /  -2.9 °C 29.99 in /  1015.5 hPa WNW 9.0 mph /  14.5 km/h 13.0 mph /  20.9 km/h 78 % 0.00 in /  0 mm 0 W/m2
05:27 32.7 °F /  0.4 °C 26.6 °F /  -3 °C 29.99 in /  1015.5 hPa WNW 8.0 mph /  12.9 km/h 14.0 mph /  22.5 km/h 78 % 0.00 in /  0 mm 0 W/m2
05:32 32.7 °F /  0.4 °C 26.6 °F /  -3 °C 29.99 in /  1015.5 hPa WNW 8.0 mph /  12.9 km/h 12.0 mph /  19.3 km/h 78 % 0.00 in /  0 mm 0 W/m2
05:42 32.7 °F /  0.4 °C 26.3 °F /  -3.2 °C 29.99 in /  1015.5 hPa West 10.0 mph /  16.1 km/h 16.0 mph /  25.7 km/h 77 % 0.00 in /  0 mm 0 W/m2
05:52 32.7 °F /  0.4 °C 26.3 °F /  -3.2 °C 29.99 in /  1015.5 hPa West 10.0 mph /  16.1 km/h 15.0 mph /  24.1 km/h 77 % 0.00 in /  0 mm 0 W/m2
05:57 32.5 °F /  0.3 °C 26.1 °F /  -3.3 °C 29.99 in /  1015.5 hPa West 9.0 mph /  14.5 km/h 14.0 mph /  22.5 km/h 77 % 0.00 in /  0 mm 0 W/m2
06:02 32.4 °F /  0.2 °C 26.3 °F /  -3.2 °C 29.99 in /  1015.5 hPa WNW 9.0 mph /  14.5 km/h 13.0 mph /  20.9 km/h 78 % 0.00 in /  0 mm 0 W/m2
06:07 32.2 °F /  0.1 °C 26.1 °F /  -3.3 °C 29.99 in /  1015.5 hPa WNW 9.0 mph /  14.5 km/h 13.0 mph /  20.9 km/h 78 % 0.00 in /  0 mm 0 W/m2
06:12 32.0 °F /  0 °C 25.9 °F /  -3.4 °C 29.99 in /  1015.5 hPa WNW 7.0 mph /  11.3 km/h 9.0 mph /  14.5 km/h 78 % 0.00 in /  0 mm 0 W/m2
06:23 31.6 °F /  -0.2 °C 25.6 °F /  -3.6 °C 29.99 in /  1015.5 hPa WNW 8.0 mph /  12.9 km/h 11.0 mph /  17.7 km/h 78 % 0.00 in /  0 mm 0 W/m2
06:28 31.5 °F /  -0.3 °C 25.7 °F /  -3.5 °C 29.99 in /  1015.5 hPa WNW 7.0 mph /  11.3 km/h 10.0 mph /  16.1 km/h 79 % 0.00 in /  0 mm 0 W/m2
06:33 31.5 °F /  -0.3 °C 25.7 °F /  -3.5 °C 29.99 in /  1015.5 hPa WNW 7.0 mph /  11.3 km/h 10.0 mph /  16.1 km/h 79 % 0.00 in /  0 mm 0 W/m2
06:38 31.5 °F /  -0.3 °C 25.7 °F /  -3.5 °C 29.99 in /  1015.5 hPa WNW 7.0 mph /  11.3 km/h 10.0 mph /  16.1 km/h 79 % 0.00 in /  0 mm 0 W/m2
06:53 31.1 °F /  -0.5 °C 25.3 °F /  -3.7 °C 29.99 in /  1015.5 hPa WNW 5.0 mph /  8 km/h 7.0 mph /  11.3 km/h 79 % 0.00 in /  0 mm 0 W/m2
07:03 30.7 °F /  -0.7 °C 25.3 °F /  -3.7 °C 29.99 in /  1015.5 hPa WNW 5.0 mph /  8 km/h 7.0 mph /  11.3 km/h 80 % 0.00 in /  0 mm 0 W/m2
07:13 30.4 °F /  -0.9 °C 25.2 °F /  -3.8 °C 29.99 in /  1015.5 hPa WNW 5.0 mph /  8 km/h 8.0 mph /  12.9 km/h 81 % 0.00 in /  0 mm 0 W/m2
07:23 30.4 °F /  -0.9 °C 25.5 °F /  -3.6 °C 29.98 in /  1015.1 hPa WNW 5.0 mph /  8 km/h 8.0 mph /  12.9 km/h 82 % 0.00 in /  0 mm 0 W/m2
07:28 30.4 °F /  -0.9 °C 25.5 °F /  -3.6 °C 29.98 in /  1015.1 hPa West 5.0 mph /  8 km/h 7.0 mph /  11.3 km/h 82 % 0.00 in /  0 mm 0 W/m2
07:33 30.6 °F /  -0.8 °C 25.7 °F /  -3.5 °C 29.98 in /  1015.1 hPa West 6.0 mph /  9.7 km/h 10.0 mph /  16.1 km/h 82 % 0.00 in /  0 mm 0 W/m2
07:43 30.6 °F /  -0.8 °C 26.0 °F /  -3.3 °C 29.98 in /  1015.1 hPa WNW 3.0 mph /  4.8 km/h 6.0 mph /  9.7 km/h 83 % 0.00 in /  0 mm 0 W/m2
07:48 30.4 °F /  -0.9 °C 25.8 °F /  -3.4 °C 29.98 in /  1015.1 hPa West 1.0 mph /  1.6 km/h 4.0 mph /  6.4 km/h 83 % 0.00 in /  0 mm 0 W/m2
07:53 30.2 °F /  -1 °C 25.7 °F /  -3.5 °C 29.98 in /  1015.1 hPa West 1.0 mph /  1.6 km/h 2.0 mph /  3.2 km/h 83 % 0.00 in /  0 mm 0 W/m2
08:03 29.8 °F /  -1.2 °C 25.6 °F /  -3.6 °C 29.97 in /  1014.8 hPa West 2.0 mph /  3.2 km/h 5.0 mph /  8 km/h 84 % 0.00 in /  0 mm 5 W/m2
08:13 29.7 °F /  -1.3 °C 25.7 °F /  -3.5 °C 29.97 in /  1014.8 hPa West 5.0 mph /  8 km/h 7.0 mph /  11.3 km/h 85 % 0.00 in /  0 mm 7 W/m2
08:18 29.8 °F /  -1.2 °C 26.2 °F /  -3.2 °C 29.97 in /  1014.8 hPa West 5.0 mph /  8 km/h 7.0 mph /  11.3 km/h 86 % 0.00 in /  0 mm 9 W/m2
08:23 30.0 °F /  -1.1 °C 26.3 °F /  -3.2 °C 29.97 in /  1014.8 hPa West 2.0 mph /  3.2 km/h 5.0 mph /  8 km/h 86 % 0.00 in /  0 mm 11 W/m2
08:33 30.4 °F /  -0.9 °C 26.7 °F /  -2.9 °C 29.97 in /  1014.8 hPa WNW 5.0 mph /  8 km/h 8.0 mph /  12.9 km/h 86 % 0.00 in /  0 mm 14 W/m2
08:38 30.6 °F /  -0.8 °C 26.9 °F /  -2.8 °C 29.97 in /  1014.8 hPa WNW 7.0 mph /  11.3 km/h 9.0 mph /  14.5 km/h 86 % 0.00 in /  0 mm 16 W/m2
08:49 31.3 °F /  -0.4 °C 27.6 °F /  -2.4 °C 29.97 in /  1014.8 hPa West 7.0 mph /  11.3 km/h 10.0 mph /  16.1 km/h 86 % 0.00 in /  0 mm 19 W/m2
08:59 31.6 °F /  -0.2 °C 27.9 °F /  -2.3 °C 29.97 in /  1014.8 hPa WNW 8.0 mph /  12.9 km/h 12.0 mph /  19.3 km/h 86 % 0.00 in /  0 mm 26 W/m2
09:04 31.8 °F /  -0.1 °C 28.1 °F /  -2.2 °C 29.97 in /  1014.8 hPa WNW 7.0 mph /  11.3 km/h 10.0 mph /  16.1 km/h 86 % 0.00 in /  0 mm 32 W/m2
09:09 32.2 °F /  0.1 °C 28.5 °F /  -1.9 °C 29.97 in /  1014.8 hPa WNW 7.0 mph /  11.3 km/h 11.0 mph /  17.7 km/h 86 % 0.00 in /  0 mm 26 W/m2
09:14 32.2 °F /  0.1 °C 28.5 °F /  -1.9 °C 29.97 in /  1014.8 hPa WNW 6.0 mph /  9.7 km/h 8.0 mph /  12.9 km/h 86 % 0.00 in /  0 mm 23 W/m2
09:19 32.2 °F /  0.1 °C 28.2 °F /  -2.1 °C 29.97 in /  1014.8 hPa WNW 6.0 mph /  9.7 km/h 9.0 mph /  14.5 km/h 85 % 0.00 in /  0 mm 25 W/m2
09:24 32.2 °F /  0.1 °C 28.5 °F /  -1.9 °C 29.97 in /  1014.8 hPa WNW 5.0 mph /  8 km/h 8.0 mph /  12.9 km/h 86 % 0.00 in /  0 mm 32 W/m2
09:34 32.4 °F /  0.2 °C 28.6 °F /  -1.9 °C 29.96 in /  1014.4 hPa West 6.0 mph /  9.7 km/h 8.0 mph /  12.9 km/h 86 % 0.00 in /  0 mm 139 W/m2
09:39 32.7 °F /  0.4 °C 29.3 °F /  -1.5 °C 29.96 in /  1014.4 hPa West 6.0 mph /  9.7 km/h 9.0 mph /  14.5 km/h 87 % 0.00 in /  0 mm 146 W/m2
09:44 33.3 °F /  0.7 °C 29.8 °F /  -1.2 °C 29.96 in /  1014.4 hPa West 7.0 mph /  11.3 km/h 11.0 mph /  17.7 km/h 87 % 0.00 in /  0 mm 104 W/m2
09:49 33.6 °F /  0.9 °C 30.2 °F /  -1 °C 29.96 in /  1014.4 hPa WNW 8.0 mph /  12.9 km/h 12.0 mph /  19.3 km/h 87 % 0.00 in /  0 mm 171 W/m2
09:55 34.2 °F /  1.2 °C 30.4 °F /  -0.9 °C 29.96 in /  1014.4 hPa West 8.0 mph /  12.9 km/h 12.0 mph /  19.3 km/h 86 % 0.00 in /  0 mm 113 W/m2
10:00 34.3 °F /  1.3 °C 30.6 °F /  -0.8 °C 29.96 in /  1014.4 hPa West 9.0 mph /  14.5 km/h 14.0 mph /  22.5 km/h 86 % 0.00 in /  0 mm 93 W/m2
10:05 34.3 °F /  1.3 °C 30.6 °F /  -0.8 °C 29.96 in /  1014.4 hPa West 9.0 mph /  14.5 km/h 13.0 mph /  20.9 km/h 86 % 0.00 in /  0 mm 77 W/m2
10:10 34.3 °F /  1.3 °C 30.6 °F /  -0.8 °C 29.96 in /  1014.4 hPa WNW 7.0 mph /  11.3 km/h 10.0 mph /  16.1 km/h 86 % 0.00 in /  0 mm 74 W/m2
10:25 34.5 °F /  1.4 °C 31.0 °F /  -0.6 °C 29.96 in /  1014.4 hPa WNW 5.0 mph /  8 km/h 8.0 mph /  12.9 km/h 87 % 0.00 in /  0 mm 121 W/m2
10:30 34.5 °F /  1.4 °C 31.0 °F /  -0.6 °C 29.95 in /  1014.1 hPa West 5.0 mph /  8 km/h 9.0 mph /  14.5 km/h 87 % 0.00 in /  0 mm 120 W/m2
10:35 34.7 °F /  1.5 °C 31.2 °F /  -0.4 °C 29.95 in /  1014.1 hPa WNW 4.0 mph /  6.4 km/h 7.0 mph /  11.3 km/h 87 % 0.00 in /  0 mm 86 W/m2
10:40 34.9 °F /  1.6 °C 31.4 °F /  -0.3 °C 29.95 in /  1014.1 hPa West 5.0 mph /  8 km/h 8.0 mph /  12.9 km/h 87 % 0.00 in /  0 mm 86 W/m2
10:50 35.1 °F /  1.7 °C 31.3 °F /  -0.4 °C 29.94 in /  1013.8 hPa WNW 5.0 mph /  8 km/h 10.0 mph /  16.1 km/h 86 % 0.00 in /  0 mm 97 W/m2
10:55 35.2 °F /  1.8 °C 31.5 °F /  -0.3 °C 29.94 in /  1013.8 hPa West 6.0 mph /  9.7 km/h 11.0 mph /  17.7 km/h 86 % 0.00 in /  0 mm 97 W/m2
11:00 35.4 °F /  1.9 °C 31.4 °F /  -0.3 °C 29.94 in /  1013.8 hPa West 8.0 mph /  12.9 km/h 13.0 mph /  20.9 km/h 85 % 0.00 in /  0 mm 98 W/m2
11:05 35.4 °F /  1.9 °C 31.4 °F /  -0.3 °C 29.93 in /  1013.4 hPa West 5.0 mph /  8 km/h 8.0 mph /  12.9 km/h 85 % 0.00 in /  0 mm 104 W/m2
11:13 35.8 °F /  2.1 °C 31.7 °F /  -0.2 °C 29.93 in /  1013.4 hPa West 4.0 mph /  6.4 km/h 7.0 mph /  11.3 km/h 85 % 0.00 in /  0 mm 105 W/m2
11:18 35.8 °F /  2.1 °C 31.4 °F /  -0.3 °C 29.93 in /  1013.4 hPa West 2.0 mph /  3.2 km/h 6.0 mph /  9.7 km/h 84 % 0.00 in /  0 mm 104 W/m2
11:23 35.8 °F /  2.1 °C 31.4 °F /  -0.3 °C 29.93 in /  1013.4 hPa West 5.0 mph /  8 km/h 9.0 mph /  14.5 km/h 84 % 0.00 in /  0 mm 97 W/m2
11:28 36.0 °F /  2.2 °C 31.6 °F /  -0.2 °C 29.93 in /  1013.4 hPa West 3.0 mph /  4.8 km/h 7.0 mph /  11.3 km/h 84 % 0.00 in /  0 mm 90 W/m2
11:33 36.0 °F /  2.2 °C 31.6 °F /  -0.2 °C 29.93 in /  1013.4 hPa West 6.0 mph /  9.7 km/h 9.0 mph /  14.5 km/h 84 % 0.00 in /  0 mm 81 W/m2
11:38 36.1 °F /  2.3 °C 31.5 °F /  -0.3 °C 29.93 in /  1013.4 hPa WNW 7.0 mph /  11.3 km/h 12.0 mph /  19.3 km/h 83 % 0.00 in /  0 mm 76 W/m2
11:48 36.1 °F /  2.3 °C 31.5 °F /  -0.3 °C 29.92 in /  1013.1 hPa West 9.0 mph /  14.5 km/h 13.0 mph /  20.9 km/h 83 % 0.00 in /  0 mm 81 W/m2
11:58 36.1 °F /  2.3 °C 31.5 °F /  -0.3 °C 29.92 in /  1013.1 hPa West 7.0 mph /  11.3 km/h 9.0 mph /  14.5 km/h 83 % 0.00 in /  0 mm 74 W/m2
12:03 36.1 °F /  2.3 °C 31.5 °F /  -0.3 °C 29.91 in /  1012.8 hPa West 8.0 mph /  12.9 km/h 11.0 mph /  17.7 km/h 83 % 0.00 in /  0 mm 74 W/m2
12:08 36.3 °F /  2.4 °C 31.7 °F /  -0.2 °C 29.92 in /  1013.1 hPa WNW 8.0 mph /  12.9 km/h 15.0 mph /  24.1 km/h 83 % 0.00 in /  0 mm 67 W/m2
12:13 36.3 °F /  2.4 °C 31.4 °F /  -0.3 °C 29.91 in /  1012.8 hPa West 10.0 mph /  16.1 km/h 15.0 mph /  24.1 km/h 82 % 0.00 in /  0 mm 51 W/m2
12:18 36.3 °F /  2.4 °C 31.4 °F /  -0.3 °C 29.91 in /  1012.8 hPa West 10.0 mph /  16.1 km/h 14.0 mph /  22.5 km/h 82 % 0.00 in /  0 mm 60 W/m2
12:28 36.3 °F /  2.4 °C 31.4 °F /  -0.3 °C 29.91 in /  1012.8 hPa West 9.0 mph /  14.5 km/h 15.0 mph /  24.1 km/h 82 % 0.00 in /  0 mm 74 W/m2
12:33 36.3 °F /  2.4 °C 31.4 °F /  -0.3 °C 29.90 in /  1012.4 hPa West 10.0 mph /  16.1 km/h 15.0 mph /  24.1 km/h 82 % 0.00 in /  0 mm 79 W/m2
12:38 36.3 °F /  2.4 °C 31.0 °F /  -0.6 °C 29.90 in /  1012.4 hPa West 11.0 mph /  17.7 km/h 15.0 mph /  24.1 km/h 81 % 0.00 in /  0 mm 83 W/m2
12:43 36.3 °F /  2.4 °C 31.0 °F /  -0.6 °C 29.90 in /  1012.4 hPa West 9.0 mph /  14.5 km/h 18.0 mph /  29 km/h 81 % 0.00 in /  0 mm 83 W/m2
12:48 36.3 °F /  2.4 °C 31.0 °F /  -0.6 °C 29.90 in /  1012.4 hPa West 10.0 mph /  16.1 km/h 14.0 mph /  22.5 km/h 81 % 0.00 in /  0 mm 88 W/m2
12:59 36.5 °F /  2.5 °C 31.2 °F /  -0.4 °C 29.89 in /  1012.1 hPa West 10.0 mph /  16.1 km/h 15.0 mph /  24.1 km/h 81 % 0.00 in /  0 mm 83 W/m2
13:09 36.7 °F /  2.6 °C 31.4 °F /  -0.3 °C 29.89 in /  1012.1 hPa West 9.0 mph /  14.5 km/h 14.0 mph /  22.5 km/h 81 % 0.00 in /  0 mm 74 W/m2
13:14 36.7 °F /  2.6 °C 31.4 °F /  -0.3 °C 29.89 in /  1012.1 hPa West 8.0 mph /  12.9 km/h 11.0 mph /  17.7 km/h 81 % 0.00 in /  0 mm 63 W/m2
13:19 36.7 °F /  2.6 °C 31.4 °F /  -0.3 °C 29.88 in /  1011.7 hPa West 8.0 mph /  12.9 km/h 12.0 mph /  19.3 km/h 81 % 0.00 in /  0 mm 60 W/m2
13:24 36.7 °F /  2.6 °C 31.7 °F /  -0.2 °C 29.88 in /  1011.7 hPa West 6.0 mph /  9.7 km/h 9.0 mph /  14.5 km/h 82 % 0.00 in /  0 mm 60 W/m2
13:29 36.7 °F /  2.6 °C 31.7 °F /  -0.2 °C 29.88 in /  1011.7 hPa West 7.0 mph /  11.3 km/h 11.0 mph /  17.7 km/h 82 % 0.00 in /  0 mm 62 W/m2
13:34 36.7 °F /  2.6 °C 31.7 °F /  -0.2 °C 29.87 in /  1011.4 hPa West 7.0 mph /  11.3 km/h 12.0 mph /  19.3 km/h 82 % 0.00 in /  0 mm 65 W/m2
13:39 36.7 °F /  2.6 °C 32.0 °F /  0 °C 29.87 in /  1011.4 hPa West 7.0 mph /  11.3 km/h 13.0 mph /  20.9 km/h 83 % 0.00 in /  0 mm 69 W/m2
13:44 36.7 °F /  2.6 °C 32.0 °F /  0 °C 29.87 in /  1011.4 hPa West 8.0 mph /  12.9 km/h 12.0 mph /  19.3 km/h 83 % 0.00 in /  0 mm 67 W/m2
13:49 36.7 °F /  2.6 °C 32.0 °F /  0 °C 29.86 in /  1011.1 hPa West 9.0 mph /  14.5 km/h 15.0 mph /  24.1 km/h 83 % 0.00 in /  0 mm 65 W/m2
13:54 36.5 °F /  2.5 °C 31.8 °F /  -0.1 °C 29.86 in /  1011.1 hPa West 7.0 mph /  11.3 km/h 10.0 mph /  16.1 km/h 83 % 0.00 in /  0 mm 65 W/m2
13:59 36.5 °F /  2.5 °C 31.8 °F /  -0.1 °C 29.86 in /  1011.1 hPa West 7.0 mph /  11.3 km/h 10.0 mph /  16.1 km/h 83 % 0.00 in /  0 mm 67 W/m2
14:04 36.5 °F /  2.5 °C 31.8 °F /  -0.1 °C 29.85 in /  1010.7 hPa West 6.0 mph /  9.7 km/h 9.0 mph /  14.5 km/h 83 % 0.00 in /  0 mm 60 W/m2
14:09 36.5 °F /  2.5 °C 31.8 °F /  -0.1 °C 29.85 in /  1010.7 hPa West 6.0 mph /  9.7 km/h 9.0 mph /  14.5 km/h 83 % 0.00 in /  0 mm 62 W/m2
14:14 36.5 °F /  2.5 °C 31.8 °F /  -0.1 °C 29.85 in /  1010.7 hPa West 5.0 mph /  8 km/h 11.0 mph /  17.7 km/h 83 % 0.00 in /  0 mm 58 W/m2
14:19 36.5 °F /  2.5 °C 31.8 °F /  -0.1 °C 29.85 in /  1010.7 hPa West 6.0 mph /  9.7 km/h 9.0 mph /  14.5 km/h 83 % 0.00 in /  0 mm 46 W/m2
14:24 36.3 °F /  2.4 °C 31.7 °F /  -0.2 °C 29.85 in /  1010.7 hPa West 4.0 mph /  6.4 km/h 6.0 mph /  9.7 km/h 83 % 0.00 in /  0 mm 44 W/m2
14:29 36.3 °F /  2.4 °C 31.7 °F /  -0.2 °C 29.84 in /  1010.4 hPa WSW 7.0 mph /  11.3 km/h 10.0 mph /  16.1 km/h 83 % 0.00 in /  0 mm 39 W/m2
14:34 36.1 °F /  2.3 °C 31.5 °F /  -0.3 °C 29.84 in /  1010.4 hPa West 7.0 mph /  11.3 km/h 11.0 mph /  17.7 km/h 83 % 0.00 in /  0 mm 32 W/m2
14:39 36.1 °F /  2.3 °C 31.8 °F /  -0.1 °C 29.84 in /  1010.4 hPa West 5.0 mph /  8 km/h 9.0 mph /  14.5 km/h 84 % 0.00 in /  0 mm 25 W/m2
14:44 35.8 °F /  2.1 °C 31.4 °F /  -0.3 °C 29.84 in /  1010.4 hPa West 6.0 mph /  9.7 km/h 10.0 mph /  16.1 km/h 84 % 0.00 in /  0 mm 21 W/m2
14:49 35.6 °F /  2 °C 31.5 °F /  -0.3 °C 29.83 in /  1010 hPa West 4.0 mph /  6.4 km/h 9.0 mph /  14.5 km/h 85 % 0.00 in /  0 mm 25 W/m2
14:54 35.4 °F /  1.9 °C 31.4 °F /  -0.3 °C 29.83 in /  1010 hPa West 4.0 mph /  6.4 km/h 5.0 mph /  8 km/h 85 % 0.00 in /  0 mm 35 W/m2
14:59 35.2 °F /  1.8 °C 31.5 °F /  -0.3 °C 29.83 in /  1010 hPa West 5.0 mph /  8 km/h 8.0 mph /  12.9 km/h 86 % 0.00 in /  0 mm 37 W/m2
15:04 35.2 °F /  1.8 °C 31.5 °F /  -0.3 °C 29.82 in /  1009.7 hPa West 7.0 mph /  11.3 km/h 10.0 mph /  16.1 km/h 86 % 0.00 in /  0 mm 30 W/m2
15:09 35.4 °F /  1.9 °C 31.9 °F /  -0.1 °C 29.83 in /  1010 hPa West 7.0 mph /  11.3 km/h 10.0 mph /  16.1 km/h 87 % 0.00 in /  0 mm 25 W/m2
15:14 35.4 °F /  1.9 °C 31.9 °F /  -0.1 °C 29.83 in /  1010 hPa WNW 6.0 mph /  9.7 km/h 9.0 mph /  14.5 km/h 87 % 0.00 in /  0 mm 21 W/m2
15:19 35.2 °F /  1.8 °C 31.8 °F /  -0.1 °C 29.83 in /  1010 hPa West 6.0 mph /  9.7 km/h 10.0 mph /  16.1 km/h 87 % 0.00 in /  0 mm 18 W/m2
15:24 35.2 °F /  1.8 °C 31.8 °F /  -0.1 °C 29.83 in /  1010 hPa West 7.0 mph /  11.3 km/h 13.0 mph /  20.9 km/h 87 % 0.00 in /  0 mm 18 W/m2
15:25 35.2 °F /  1.8 °C 31.8 °F /  -0.1 °C 29.82 in /  1009.7 hPa West 8.0 mph /  12.9 km/h 13.0 mph /  20.9 km/h 87 % 0.00 in /  0 mm 18 W/m2
15:30 35.1 °F /  1.7 °C 31.6 °F /  -0.2 °C 29.82 in /  1009.7 hPa West 7.0 mph /  11.3 km/h 10.0 mph /  16.1 km/h 87 % 0.00 in /  0 mm 16 W/m2
15:36 34.9 °F /  1.6 °C 31.4 °F /  -0.3 °C 29.82 in /  1009.7 hPa West 6.0 mph /  9.7 km/h 10.0 mph /  16.1 km/h 87 % 0.00 in /  0 mm 7 W/m2
15:39 34.9 °F /  1.6 °C 31.4 °F /  -0.3 °C 29.81 in /  1009.4 hPa West 6.0 mph /  9.7 km/h 10.0 mph /  16.1 km/h 87 % 0.00 in /  0 mm 5 W/m2
15:44 34.9 °F /  1.6 °C 31.4 °F /  -0.3 °C 29.81 in /  1009.4 hPa West 3.0 mph /  4.8 km/h 7.0 mph /  11.3 km/h 87 % 0.00 in /  0 mm 5 W/m2
15:54 34.7 °F /  1.5 °C 31.2 °F /  -0.4 °C 29.81 in /  1009.4 hPa West 5.0 mph /  8 km/h 8.0 mph /  12.9 km/h 87 % 0.00 in /  0 mm 0 W/m2
15:59 34.5 °F /  1.4 °C 31.3 °F /  -0.4 °C 29.81 in /  1009.4 hPa West 5.0 mph /  8 km/h 8.0 mph /  12.9 km/h 88 % 0.00 in /  0 mm 0 W/m2
16:04 34.5 °F /  1.4 °C 31.3 °F /  -0.4 °C 29.81 in /  1009.4 hPa West 3.0 mph /  4.8 km/h 5.0 mph /  8 km/h 88 % 0.00 in /  0 mm 0 W/m2
16:09 34.3 °F /  1.3 °C 31.2 °F /  -0.4 °C 29.81 in /  1009.4 hPa West 6.0 mph /  9.7 km/h 10.0 mph /  16.1 km/h 88 % 0.00 in /  0 mm 0 W/m2
16:14 34.3 °F /  1.3 °C 31.2 °F /  -0.4 °C 29.81 in /  1009.4 hPa West 5.0 mph /  8 km/h 7.0 mph /  11.3 km/h 88 % 0.00 in /  0 mm 0 W/m2
16:19 34.3 °F /  1.3 °C 31.4 °F /  -0.3 °C 29.81 in /  1009.4 hPa WSW 4.0 mph /  6.4 km/h 9.0 mph /  14.5 km/h 89 % 0.00 in /  0 mm 0 W/m2
16:24 34.2 °F /  1.2 °C 31.3 °F /  -0.4 °C 29.80 in /  1009 hPa West 3.0 mph /  4.8 km/h 6.0 mph /  9.7 km/h 89 % 0.00 in /  0 mm 0 W/m2
16:29 34.2 °F /  1.2 °C 31.3 °F /  -0.4 °C 29.80 in /  1009 hPa West 1.0 mph /  1.6 km/h 4.0 mph /  6.4 km/h 89 % 0.00 in /  0 mm 0 W/m2
16:34 34.0 °F /  1.1 °C 31.1 °F /  -0.5 °C 29.79 in /  1008.7 hPa Calm   1.0 mph /  1.6 km/h 89 % 0.00 in /  0 mm 0 W/m2
16:49 33.4 °F /  0.8 °C 30.5 °F /  -0.8 °C 29.78 in /  1008.4 hPa Calm     89 % 0.00 in /  0 mm 0 W/m2
16:54 33.1 °F /  0.6 °C 30.2 °F /  -1 °C 29.78 in /  1008.4 hPa Calm     89 % 0.00 in /  0 mm 0 W/m2
16:59 32.9 °F /  0.5 °C 30.0 °F /  -1.1 °C 29.78 in /  1008.4 hPa Calm     89 % 0.00 in /  0 mm 0 W/m2
17:04 32.7 °F /  0.4 °C 30.1 °F /  -1.1 °C 29.78 in /  1008.4 hPa West 2.0 mph /  3.2 km/h 4.0 mph /  6.4 km/h 90 % 0.00 in /  0 mm 0 W/m2
17:19 32.9 °F /  0.5 °C 30.6 °F /  -0.8 °C 29.78 in /  1008.4 hPa West 7.0 mph /  11.3 km/h 11.0 mph /  17.7 km/h 91 % 0.00 in /  0 mm 0 W/m2
17:24 33.1 °F /  0.6 °C 31.0 °F /  -0.6 °C 29.78 in /  1008.4 hPa West 6.0 mph /  9.7 km/h 8.0 mph /  12.9 km/h 92 % 0.00 in /  0 mm 0 W/m2
17:29 33.3 °F /  0.7 °C 31.2 °F /  -0.4 °C 29.78 in /  1008.4 hPa WNW 5.0 mph /  8 km/h 7.0 mph /  11.3 km/h 92 % 0.00 in /  0 mm 0 W/m2
17:34 33.3 °F /  0.7 °C 31.2 °F /  -0.4 °C 29.78 in /  1008.4 hPa WNW 4.0 mph /  6.4 km/h 7.0 mph /  11.3 km/h 92 % 0.00 in /  0 mm 0 W/m2
17:39 33.3 °F /  0.7 °C 31.2 °F /  -0.4 °C 29.78 in /  1008.4 hPa WNW 5.0 mph /  8 km/h 6.0 mph /  9.7 km/h 92 % 0.00 in /  0 mm 0 W/m2
17:44 33.3 °F /  0.7 °C 31.2 °F /  -0.4 °C 29.78 in /  1008.4 hPa WNW 4.0 mph /  6.4 km/h 5.0 mph /  8 km/h 92 % 0.00 in /  0 mm 0 W/m2
17:49 33.3 °F /  0.7 °C 31.2 °F /  -0.4 °C 29.77 in /  1008 hPa WNW 3.0 mph /  4.8 km/h 5.0 mph /  8 km/h 92 % 0.00 in /  0 mm 0 W/m2
17:54 33.3 °F /  0.7 °C 31.2 °F /  -0.4 °C 29.77 in /  1008 hPa West 6.0 mph /  9.7 km/h 10.0 mph /  16.1 km/h 92 % 0.00 in /  0 mm 0 W/m2
18:00 33.4 °F /  0.8 °C 31.4 °F /  -0.3 °C 29.76 in /  1007.7 hPa West 5.0 mph /  8 km/h 8.0 mph /  12.9 km/h 92 % 0.00 in /  0 mm 0 W/m2
18:05 33.4 °F /  0.8 °C 31.4 °F /  -0.3 °C 29.76 in /  1007.7 hPa WNW 6.0 mph /  9.7 km/h 8.0 mph /  12.9 km/h 92 % 0.00 in /  0 mm 0 W/m2
18:10 33.6 °F /  0.9 °C 31.5 °F /  -0.3 °C 29.76 in /  1007.7 hPa WNW 4.0 mph /  6.4 km/h 7.0 mph /  11.3 km/h 92 % 0.00 in /  0 mm 0 W/m2
18:20 33.6 °F /  0.9 °C 31.5 °F /  -0.3 °C 29.75 in /  1007.3 hPa West 5.0 mph /  8 km/h 8.0 mph /  12.9 km/h 92 % 0.00 in /  0 mm 0 W/m2
18:25 33.6 °F /  0.9 °C 31.5 °F /  -0.3 °C 29.75 in /  1007.3 hPa West 5.0 mph /  8 km/h 8.0 mph /  12.9 km/h 92 % 0.00 in /  0 mm 0 W/m2
18:40 33.4 °F /  0.8 °C 31.4 °F /  -0.3 °C 29.74 in /  1007 hPa West 4.0 mph /  6.4 km/h 6.0 mph /  9.7 km/h 92 % 0.00 in /  0 mm 0 W/m2
18:45 33.4 °F /  0.8 °C 31.4 °F /  -0.3 °C 29.74 in /  1007 hPa WNW 2.0 mph /  3.2 km/h 5.0 mph /  8 km/h 92 % 0.00 in /  0 mm 0 W/m2
18:50 33.3 °F /  0.7 °C 31.2 °F /  -0.4 °C 29.74 in /  1007 hPa WNW 1.0 mph /  1.6 km/h 6.0 mph /  9.7 km/h 92 % 0.00 in /  0 mm 0 W/m2
18:55 33.1 °F /  0.6 °C 31.0 °F /  -0.6 °C 29.73 in /  1006.7 hPa West 4.0 mph /  6.4 km/h 6.0 mph /  9.7 km/h 92 % 0.00 in /  0 mm 0 W/m2
19:00 33.1 °F /  0.6 °C 31.0 °F /  -0.6 °C 29.73 in /  1006.7 hPa West 4.0 mph /  6.4 km/h 6.0 mph /  9.7 km/h 92 % 0.00 in /  0 mm 0 W/m2
19:05 32.9 °F /  0.5 °C 30.8 °F /  -0.7 °C 29.73 in /  1006.7 hPa West 2.0 mph /  3.2 km/h 5.0 mph /  8 km/h 92 % 0.00 in /  0 mm 0 W/m2
19:20 32.7 °F /  0.4 °C 30.7 °F /  -0.7 °C 29.73 in /  1006.7 hPa WNW 5.0 mph /  8 km/h 8.0 mph /  12.9 km/h 92 % 0.00 in /  0 mm 0 W/m2
19:25 32.7 °F /  0.4 °C 30.7 °F /  -0.7 °C 29.73 in /  1006.7 hPa WNW 5.0 mph /  8 km/h 7.0 mph /  11.3 km/h 92 % 0.00 in /  0 mm 0 W/m2
19:26 32.7 °F /  0.4 °C 30.7 °F /  -0.7 °C 29.73 in /  1006.7 hPa West 5.0 mph /  8 km/h 8.0 mph /  12.9 km/h 92 % 0.00 in /  0 mm 0 W/m2
19:36 32.9 °F /  0.5 °C 30.8 °F /  -0.7 °C 29.72 in /  1006.3 hPa West 4.0 mph /  6.4 km/h 7.0 mph /  11.3 km/h 92 % 0.00 in /  0 mm 0 W/m2
19:41 33.1 °F /  0.6 °C 31.0 °F /  -0.6 °C 29.72 in /  1006.3 hPa West 3.0 mph /  4.8 km/h 5.0 mph /  8 km/h 92 % 0.00 in /  0 mm 0 W/m2
19:46 33.1 °F /  0.6 °C 31.0 °F /  -0.6 °C 29.72 in /  1006.3 hPa West 4.0 mph /  6.4 km/h 6.0 mph /  9.7 km/h 92 % 0.00 in /  0 mm 0 W/m2
19:51 33.1 °F /  0.6 °C 31.0 °F /  -0.6 °C 29.71 in /  1006 hPa West 3.0 mph /  4.8 km/h 7.0 mph /  11.3 km/h 92 % 0.00 in /  0 mm 0 W/m2
19:56 33.1 °F /  0.6 °C 31.0 °F /  -0.6 °C 29.71 in /  1006 hPa West 4.0 mph /  6.4 km/h 7.0 mph /  11.3 km/h 92 % 0.00 in /  0 mm 0 W/m2
20:01 32.9 °F /  0.5 °C 30.8 °F /  -0.7 °C 29.71 in /  1006 hPa WNW 3.0 mph /  4.8 km/h 6.0 mph /  9.7 km/h 92 % 0.00 in /  0 mm 0 W/m2
20:06 32.7 °F /  0.4 °C 30.7 °F /  -0.7 °C 29.70 in /  1005.6 hPa WNW 5.0 mph /  8 km/h 7.0 mph /  11.3 km/h 92 % 0.00 in /  0 mm 0 W/m2
20:11 32.7 °F /  0.4 °C 30.7 °F /  -0.7 °C 29.70 in /  1005.6 hPa West 3.0 mph /  4.8 km/h 7.0 mph /  11.3 km/h 92 % 0.00 in /  0 mm 0 W/m2
20:16 32.9 °F /  0.5 °C 30.8 °F /  -0.7 °C 29.70 in /  1005.6 hPa West 2.0 mph /  3.2 km/h 5.0 mph /  8 km/h 92 % 0.00 in /  0 mm 0 W/m2
20:26 33.1 °F /  0.6 °C 31.0 °F /  -0.6 °C 29.69 in /  1005.3 hPa Calm     92 % 0.00 in /  0 mm 0 W/m2
20:31 33.1 °F /  0.6 °C 31.0 °F /  -0.6 °C 29.69 in /  1005.3 hPa Calm     92 % 0.00 in /  0 mm 0 W/m2
20:36 33.1 °F /  0.6 °C 31.0 °F /  -0.6 °C 29.68 in /  1005 hPa Calm     92 % 0.00 in /  0 mm 0 W/m2
20:46 33.1 °F /  0.6 °C 31.0 °F /  -0.6 °C 29.68 in /  1005 hPa West 1.0 mph /  1.6 km/h 4.0 mph /  6.4 km/h 92 % 0.00 in /  0 mm 0 W/m2
20:51 33.1 °F /  0.6 °C 31.0 °F /  -0.6 °C 29.68 in /  1005 hPa West 3.0 mph /  4.8 km/h 5.0 mph /  8 km/h 92 % 0.00 in /  0 mm 0 W/m2
20:56 33.3 °F /  0.7 °C 31.2 °F /  -0.4 °C 29.68 in /  1005 hPa West 2.0 mph /  3.2 km/h 5.0 mph /  8 km/h 92 % 0.00 in /  0 mm 0 W/m2
21:01 33.4 °F /  0.8 °C 31.6 °F /  -0.2 °C 29.67 in /  1004.6 hPa West 3.0 mph /  4.8 km/h 5.0 mph /  8 km/h 93 % 0.00 in /  0 mm 0 W/m2
21:06 33.4 °F /  0.8 °C 31.6 °F /  -0.2 °C 29.67 in /  1004.6 hPa WSW 3.0 mph /  4.8 km/h 5.0 mph /  8 km/h 93 % 0.00 in /  0 mm 0 W/m2
21:10 33.4 °F /  0.8 °C 31.6 °F /  -0.2 °C 29.67 in /  1004.6 hPa WSW 4.0 mph /  6.4 km/h 6.0 mph /  9.7 km/h 93 % 0.00 in /  0 mm 0 W/m2
21:15 33.6 °F /  0.9 °C 31.8 °F /  -0.1 °C 29.66 in /  1004.3 hPa WSW 1.0 mph /  1.6 km/h 2.0 mph /  3.2 km/h 93 % 0.00 in /  0 mm 0 W/m2
21:20 33.6 °F /  0.9 °C 31.8 °F /  -0.1 °C 29.66 in /  1004.3 hPa Calm     93 % 0.00 in /  0 mm 0 W/m2
21:25 33.6 °F /  0.9 °C 31.8 °F /  -0.1 °C 29.66 in /  1004.3 hPa Calm     93 % 0.00 in /  0 mm 0 W/m2
21:30 33.6 °F /  0.9 °C 31.8 °F /  -0.1 °C 29.65 in /  1003.9 hPa Calm     93 % 0.00 in /  0 mm 0 W/m2
21:35 33.4 °F /  0.8 °C 31.6 °F /  -0.2 °C 29.65 in /  1003.9 hPa Calm     93 % 0.00 in /  0 mm 0 W/m2
21:40 33.4 °F /  0.8 °C 31.6 °F /  -0.2 °C 29.65 in /  1003.9 hPa WSW 2.0 mph /  3.2 km/h 4.0 mph /  6.4 km/h 93 % 0.00 in /  0 mm 0 W/m2
21:45 33.4 °F /  0.8 °C 31.6 °F /  -0.2 °C 29.64 in /  1003.6 hPa WSW 2.0 mph /  3.2 km/h 4.0 mph /  6.4 km/h 93 % 0.00 in /  0 mm 0 W/m2
21:55 33.4 °F /  0.8 °C 31.6 °F /  -0.2 °C 29.63 in /  1003.3 hPa WSW 1.0 mph /  1.6 km/h 2.0 mph /  3.2 km/h 93 % 0.00 in /  0 mm 0 W/m2
22:00 33.4 °F /  0.8 °C 31.6 °F /  -0.2 °C 29.63 in /  1003.3 hPa Calm     93 % 0.00 in /  0 mm 0 W/m2
22:05 33.4 °F /  0.8 °C 31.6 °F /  -0.2 °C 29.63 in /  1003.3 hPa WSW 1.0 mph /  1.6 km/h 2.0 mph /  3.2 km/h 93 % 0.00 in /  0 mm 0 W/m2
22:10 33.4 °F /  0.8 °C 31.9 °F /  -0.1 °C 29.62 in /  1002.9 hPa WNW 2.0 mph /  3.2 km/h 5.0 mph /  8 km/h 94 % 0.00 in /  0 mm 0 W/m2
22:20 33.6 °F /  0.9 °C 32.1 °F /  0.1 °C 29.61 in /  1002.6 hPa WNW 1.0 mph /  1.6 km/h 4.0 mph /  6.4 km/h 94 % 0.00 in /  0 mm 0 W/m2
22:25 33.6 °F /  0.9 °C 32.1 °F /  0.1 °C 29.61 in /  1002.6 hPa Calm   2.0 mph /  3.2 km/h 94 % 0.00 in /  0 mm 0 W/m2
22:30 33.8 °F /  1 °C 32.3 °F /  0.2 °C 29.60 in /  1002.3 hPa WNW 1.0 mph /  1.6 km/h 3.0 mph /  4.8 km/h 94 % 0.00 in /  0 mm 0 W/m2
22:40 33.8 °F /  1 °C 32.3 °F /  0.2 °C 29.59 in /  1001.9 hPa Calm   1.0 mph /  1.6 km/h 94 % 0.00 in /  0 mm 0 W/m2
22:45 33.6 °F /  0.9 °C 32.1 °F /  0.1 °C 29.59 in /  1001.9 hPa WNW 3.0 mph /  4.8 km/h 5.0 mph /  8 km/h 94 % 0.00 in /  0 mm 0 W/m2
22:50 33.6 °F /  0.9 °C 32.1 °F /  0.1 °C 29.59 in /  1001.9 hPa WNW 3.0 mph /  4.8 km/h 5.0 mph /  8 km/h 94 % 0.00 in /  0 mm 0 W/m2
22:55 33.6 °F /  0.9 °C 32.1 °F /  0.1 °C 29.59 in /  1001.9 hPa WNW 2.0 mph /  3.2 km/h 4.0 mph /  6.4 km/h 94 % 0.00 in /  0 mm 0 W/m2
23:01 33.6 °F /  0.9 °C 32.1 °F /  0.1 °C 29.59 in /  1001.9 hPa WNW 1.0 mph /  1.6 km/h 4.0 mph /  6.4 km/h 94 % 0.00 in /  0 mm 0 W/m2
23:06 33.6 °F /  0.9 °C 32.1 °F /  0.1 °C 29.58 in /  1001.6 hPa WNW 1.0 mph /  1.6 km/h 4.0 mph /  6.4 km/h 94 % 0.00 in /  0 mm 0 W/m2
23:11 33.6 °F /  0.9 °C 32.1 °F /  0.1 °C 29.58 in /  1001.6 hPa WNW 1.0 mph /  1.6 km/h 2.0 mph /  3.2 km/h 94 % 0.00 in /  0 mm 0 W/m2
23:16 33.6 °F /  0.9 °C 32.1 °F /  0.1 °C 29.58 in /  1001.6 hPa Calm   2.0 mph /  3.2 km/h 94 % 0.00 in /  0 mm 0 W/m2
23:21 33.6 °F /  0.9 °C 32.1 °F /  0.1 °C 29.57 in /  1001.2 hPa WNW 2.0 mph /  3.2 km/h 4.0 mph /  6.4 km/h 94 % 0.00 in /  0 mm 0 W/m2
23:26 33.6 °F /  0.9 °C 32.1 °F /  0.1 °C 29.57 in /  1001.2 hPa WNW 1.0 mph /  1.6 km/h 3.0 mph /  4.8 km/h 94 % 0.00 in /  0 mm 0 W/m2
23:31 33.6 °F /  0.9 °C 32.1 °F /  0.1 °C 29.57 in /  1001.2 hPa WNW 2.0 mph /  3.2 km/h 4.0 mph /  6.4 km/h 94 % 0.00 in /  0 mm 0 W/m2
23:36 33.6 °F /  0.9 °C 32.1 °F /  0.1 °C 29.56 in /  1000.9 hPa WNW 1.0 mph /  1.6 km/h 3.0 mph /  4.8 km/h 94 % 0.00 in /  0 mm 0 W/m2
23:41 33.6 °F /  0.9 °C 32.1 °F /  0.1 °C 29.56 in /  1000.9 hPa Calm   1.0 mph /  1.6 km/h 94 % 0.00 in /  0 mm 0 W/m2
23:46 33.6 °F /  0.9 °C 32.1 °F /  0.1 °C 29.55 in /  1000.6 hPa WNW 1.0 mph /  1.6 km/h 4.0 mph /  6.4 km/h 94 % 0.00 in /  0 mm 0 W/m2
23:51 33.8 °F /  1 °C 32.3 °F /  0.2 °C 29.55 in /  1000.6 hPa Calm   2.0 mph /  3.2 km/h 94 % 0.00 in /  0 mm 0 W/m2
23:56 33.8 °F /  1 °C 32.3 °F /  0.2 °C 29.54 in /  1000.2 hPa WNW 3.0 mph /  4.8 km/h 5.0 mph /  8 km/h 94 % 0.00 in /  0 mm 0 W/m2
Delerius-Weather
Compliments of Weather Underground - 2 mb

Data updates at regular intervals.